createdAt,value
2023-05-21T00:02:48.395Z,20.84
2023-05-21T00:07:42.139Z,20.97
2023-05-21T00:12:36.188Z,20.97
2023-05-21T00:17:29.317Z,20.75
2023-05-21T00:22:23.336Z,20.98
2023-05-21T00:27:16.786Z,20.98
2023-05-21T00:32:10.084Z,20.99
2023-05-21T00:37:03.437Z,20.98
2023-05-21T00:41:57.792Z,20.84
2023-05-21T00:46:54.294Z,20.92
2023-05-21T00:51:48.963Z,20.96
2023-05-21T00:56:42.692Z,20.71
2023-05-21T01:01:37.588Z,20.84
2023-05-21T01:06:31.073Z,20.83
2023-05-21T01:11:39.464Z,20.81
2023-05-21T01:16:32.798Z,20.83
2023-05-21T01:21:26.753Z,20.94
2023-05-21T01:26:19.325Z,20.91
2023-05-21T01:31:27.211Z,20.84
2023-05-21T01:36:26.858Z,20.81
2023-05-21T01:41:22.051Z,20.77
2023-05-21T01:46:19.039Z,20.91
2023-05-21T01:51:12.623Z,20.92
2023-05-21T01:56:06.065Z,20.67
2023-05-21T02:00:58.738Z,20.90
2023-05-21T02:05:52.597Z,20.90
2023-05-21T02:10:45.392Z,20.82
2023-05-21T02:15:39.073Z,20.89
2023-05-21T02:20:32.140Z,20.90
2023-05-21T02:25:26.485Z,20.84
2023-05-21T02:30:19.597Z,20.74
2023-05-21T02:35:14.054Z,20.72
2023-05-21T02:40:08.522Z,20.75
2023-05-21T02:45:03.057Z,20.85
2023-05-21T02:49:59.844Z,20.79
2023-05-21T02:54:53.291Z,20.87
2023-05-21T02:59:46.640Z,20.86
2023-05-21T03:04:46.739Z,20.60
2023-05-21T03:09:39.600Z,20.79
2023-05-21T03:14:33.221Z,20.86
2023-05-21T03:19:27.437Z,20.85
2023-05-21T03:24:22.378Z,20.86
2023-05-21T03:29:15.233Z,20.83
2023-05-21T03:34:11.098Z,20.69
2023-05-21T03:39:04.971Z,20.81
2023-05-21T03:43:59.512Z,20.60
2023-05-21T03:48:58.861Z,20.82
2023-05-21T03:53:54.159Z,20.81
2023-05-21T03:58:47.717Z,20.59
2023-05-21T04:03:41.745Z,20.80
2023-05-21T04:08:38.555Z,20.77
2023-05-21T04:13:31.959Z,20.63
2023-05-21T04:18:26.443Z,20.66
2023-05-21T04:23:19.849Z,20.54
2023-05-21T04:28:12.924Z,20.76
2023-05-21T04:33:06.000Z,20.73
2023-05-21T04:38:02.335Z,20.63
2023-05-21T04:42:57.200Z,20.76
2023-05-21T04:47:51.301Z,20.73
2023-05-21T04:52:46.037Z,20.61
2023-05-21T04:57:38.140Z,20.73
2023-05-21T05:02:30.851Z,20.74
2023-05-21T05:07:24.206Z,20.59
2023-05-21T05:12:17.598Z,20.58
2023-05-21T05:17:15.210Z,20.74
2023-05-21T05:22:10.016Z,20.72
2023-05-21T05:27:04.660Z,20.72
2023-05-21T05:31:58.663Z,20.71
2023-05-21T05:36:53.510Z,20.60
2023-05-21T05:41:46.515Z,20.59
2023-05-21T05:46:44.359Z,20.71
2023-05-21T05:51:38.068Z,20.60
2023-05-21T05:56:31.551Z,20.61
2023-05-21T06:01:25.625Z,20.73
2023-05-21T06:06:19.087Z,20.60
2023-05-21T06:11:12.742Z,20.73
2023-05-21T06:16:08.426Z,20.70
2023-05-21T06:21:02.247Z,20.59
2023-05-21T06:25:56.355Z,20.64
2023-05-21T06:30:51.784Z,20.47
2023-05-21T06:35:46.347Z,20.72
2023-05-21T06:40:39.907Z,20.58
2023-05-21T06:45:37.145Z,20.73
2023-05-21T06:50:42.428Z,20.64
2023-05-21T06:55:35.137Z,20.78
2023-05-21T07:00:44.686Z,20.61
2023-05-21T07:05:37.289Z,20.70
2023-05-21T07:10:31.514Z,20.75
2023-05-21T07:15:25.508Z,20.71
2023-05-21T07:20:19.373Z,20.53
2023-05-21T07:25:15.436Z,20.54
2023-05-21T07:30:10.635Z,20.60
2023-05-21T07:35:03.951Z,20.56
2023-05-21T07:39:59.615Z,20.64
2023-05-21T07:44:52.581Z,20.53
2023-05-21T07:49:46.950Z,20.72
2023-05-21T07:54:39.910Z,20.46
2023-05-21T07:59:34.531Z,20.64
2023-05-21T08:04:27.713Z,20.62
2023-05-21T08:09:21.288Z,20.70
2023-05-21T08:14:15.421Z,20.66
2023-05-21T08:19:08.219Z,20.60
2023-05-21T08:24:01.615Z,20.65
2023-05-21T08:28:54.854Z,20.52
2023-05-21T08:33:52.694Z,20.63
2023-05-21T08:38:53.298Z,20.69
2023-05-21T08:43:57.257Z,20.71
2023-05-21T08:48:55.096Z,20.79
2023-05-21T08:53:50.227Z,20.75
2023-05-21T08:58:48.527Z,20.77
2023-05-21T09:03:43.956Z,20.71
2023-05-21T09:08:39.621Z,20.77
2023-05-21T09:13:40.372Z,20.88
2023-05-21T09:18:38.790Z,20.92
2023-05-21T09:23:43.122Z,20.94
2023-05-21T09:28:36.990Z,20.78
2023-05-21T09:33:32.610Z,20.91
2023-05-21T09:38:27.787Z,20.68
2023-05-21T09:43:22.682Z,20.89
2023-05-21T09:48:17.357Z,20.98
2023-05-21T09:53:16.591Z,20.91
2023-05-21T09:58:11.309Z,20.99
2023-05-21T10:03:11.619Z,21.02
2023-05-21T10:08:09.163Z,20.88
2023-05-21T10:13:09.934Z,20.95
2023-05-21T10:18:03.683Z,21.00
2023-05-21T10:22:56.373Z,21.17
2023-05-21T10:27:49.716Z,21.20
2023-05-21T10:32:43.750Z,21.25
2023-05-21T10:37:36.677Z,21.20
2023-05-21T10:42:32.144Z,21.28
2023-05-21T10:47:34.112Z,21.28
2023-05-21T10:52:48.609Z,21.23
2023-05-21T10:57:53.019Z,21.21
2023-05-21T11:02:48.064Z,21.24
2023-05-21T11:08:02.184Z,21.23
2023-05-21T11:13:17.472Z,21.28
2023-05-21T11:18:11.039Z,21.30
2023-05-21T11:23:05.956Z,21.27
2023-05-21T11:28:11.695Z,21.26
2023-05-21T11:33:14.362Z,21.30
2023-05-21T11:38:10.735Z,21.11
2023-05-21T11:43:04.842Z,21.02
2023-05-21T11:47:59.035Z,21.22
2023-05-21T11:52:54.339Z,21.12
2023-05-21T11:57:48.650Z,21.11
2023-05-21T12:02:51.452Z,21.24
2023-05-21T12:07:47.404Z,21.22
2023-05-21T12:12:53.822Z,21.09
2023-05-21T12:17:52.800Z,21.14
2023-05-21T12:22:46.391Z,21.09
2023-05-21T12:27:40.565Z,21.11
2023-05-21T12:32:34.423Z,21.12
2023-05-21T12:37:32.212Z,21.15
2023-05-21T12:42:45.245Z,21.28
2023-05-21T12:47:39.042Z,21.28
2023-05-21T12:52:32.757Z,21.26
2023-05-21T12:57:28.742Z,21.25
2023-05-21T13:02:26.467Z,21.14
2023-05-21T13:07:19.517Z,21.15
2023-05-21T13:12:15.250Z,21.26
2023-05-21T13:17:08.341Z,21.12
2023-05-21T13:22:01.581Z,21.23
2023-05-21T13:26:54.838Z,21.26
2023-05-21T13:31:48.650Z,21.31
2023-05-21T13:36:42.255Z,21.19
2023-05-21T13:41:35.467Z,21.19
2023-05-21T13:46:27.486Z,21.29
2023-05-21T13:51:37.566Z,21.29
2023-05-21T13:56:34.384Z,21.23
2023-05-21T14:01:28.150Z,21.26
2023-05-21T14:06:22.636Z,21.23
2023-05-21T14:11:16.818Z,21.25
2023-05-21T14:16:09.992Z,21.25
2023-05-21T14:21:03.732Z,21.15
2023-05-21T14:25:58.070Z,21.02
2023-05-21T14:30:52.448Z,21.26
2023-05-21T14:35:45.886Z,21.12
2023-05-21T14:40:39.078Z,21.24
2023-05-21T14:45:34.727Z,21.26
2023-05-21T14:50:32.381Z,21.08
2023-05-21T14:55:27.550Z,21.21
2023-05-21T15:00:20.024Z,21.25
2023-05-21T15:05:13.768Z,21.26
2023-05-21T15:10:09.309Z,21.23
2023-05-21T15:15:02.126Z,21.23
2023-05-21T15:19:53.947Z,20.98
2023-05-21T15:24:47.251Z,21.24
2023-05-21T15:29:40.811Z,21.13
2023-05-21T15:34:34.514Z,21.27
2023-05-21T15:39:28.242Z,21.16
2023-05-21T15:44:22.055Z,21.28
2023-05-21T15:49:14.658Z,21.31
2023-05-21T15:54:07.653Z,21.18
2023-05-21T15:59:01.994Z,21.25
2023-05-21T16:03:56.265Z,21.42
2023-05-21T16:08:50.235Z,21.32
2023-05-21T16:13:42.928Z,21.43
2023-05-21T16:18:35.396Z,21.46
2023-05-21T16:23:32.787Z,21.48
2023-05-21T16:28:27.354Z,21.50
2023-05-21T16:33:21.064Z,21.53
2023-05-21T16:38:14.143Z,21.42
2023-05-21T16:43:09.011Z,21.53
2023-05-21T16:48:01.938Z,21.40
2023-05-21T16:52:55.047Z,21.30
2023-05-21T16:57:48.965Z,21.47
2023-05-21T17:02:42.814Z,21.53
2023-05-21T17:07:36.410Z,21.48
2023-05-21T17:12:29.800Z,21.53
2023-05-21T17:17:23.732Z,21.47
2023-05-21T17:22:15.956Z,21.60
2023-05-21T17:27:08.688Z,21.48
2023-05-21T17:32:01.733Z,21.56
2023-05-21T17:36:56.227Z,21.55
2023-05-21T17:41:50.791Z,21.52
2023-05-21T17:46:45.311Z,21.41
2023-05-21T17:51:39.031Z,21.31
2023-05-21T17:56:39.338Z,21.52
2023-05-21T18:01:33.686Z,21.52
2023-05-21T18:06:26.990Z,21.50
2023-05-21T18:11:20.993Z,21.54
2023-05-21T18:16:15.319Z,21.51
2023-05-21T18:21:08.356Z,21.40
2023-05-21T18:26:01.264Z,21.52
2023-05-21T18:30:56.147Z,21.43
2023-05-21T18:35:50.066Z,21.51
2023-05-21T18:40:43.859Z,21.40
2023-05-21T18:45:37.416Z,21.59
2023-05-21T18:50:32.939Z,21.50
2023-05-21T18:55:26.226Z,21.57
2023-05-21T19:00:20.111Z,21.61
2023-05-21T19:05:14.701Z,21.64
2023-05-21T19:10:08.306Z,21.64
2023-05-21T19:15:01.763Z,21.68
2023-05-21T19:19:56.562Z,21.69
2023-05-21T19:24:49.361Z,21.73
2023-05-21T19:29:42.468Z,21.72
2023-05-21T19:34:36.220Z,21.65
2023-05-21T19:39:50.709Z,21.78
2023-05-21T19:44:43.430Z,21.81
2023-05-21T19:49:37.187Z,21.64
2023-05-21T19:54:30.375Z,21.88
2023-05-21T19:59:24.357Z,21.89
2023-05-21T20:04:18.684Z,21.79
2023-05-21T20:09:13.867Z,21.89
2023-05-21T20:14:07.368Z,21.85
2023-05-21T20:19:02.374Z,21.79
2023-05-21T20:23:56.256Z,21.74
2023-05-21T20:28:49.388Z,21.84
2023-05-21T20:33:42.092Z,21.83
2023-05-21T20:38:37.597Z,21.82
2023-05-21T20:43:31.507Z,21.67
2023-05-21T20:48:24.912Z,21.72
2023-05-21T20:53:18.311Z,21.80
2023-05-21T20:58:12.208Z,21.81
2023-05-21T21:03:06.403Z,21.83
2023-05-21T21:08:02.984Z,21.80
2023-05-21T21:12:55.956Z,21.85
2023-05-21T21:17:50.178Z,21.86
2023-05-21T21:22:44.057Z,21.87
2023-05-21T21:27:38.364Z,21.87
2023-05-21T21:32:32.125Z,21.65
2023-05-21T21:37:26.129Z,21.86
2023-05-21T21:42:20.309Z,21.75
2023-05-21T21:47:13.604Z,21.89
2023-05-21T21:52:09.384Z,21.90
2023-05-21T21:57:02.153Z,21.79
2023-05-21T22:01:56.599Z,21.90
2023-05-21T22:06:50.847Z,21.89
2023-05-21T22:11:44.533Z,21.90
2023-05-21T22:16:37.822Z,21.87
2023-05-21T22:21:33.326Z,21.90
2023-05-21T22:26:26.546Z,21.79
2023-05-21T22:31:19.819Z,21.92
2023-05-21T22:36:14.027Z,21.93
2023-05-21T22:41:08.695Z,21.92
2023-05-21T22:46:02.384Z,21.90
2023-05-21T22:50:55.489Z,21.92
2023-05-21T22:55:48.830Z,21.68
2023-05-21T23:00:42.535Z,21.90
2023-05-21T23:05:35.585Z,21.92
2023-05-21T23:10:28.172Z,21.93
2023-05-21T23:15:22.283Z,21.95
2023-05-21T23:20:16.297Z,21.95
2023-05-21T23:25:09.311Z,21.96
2023-05-21T23:30:02.786Z,21.96
2023-05-21T23:34:55.776Z,21.96
2023-05-21T23:39:50.512Z,21.96
2023-05-21T23:44:42.720Z,21.97
2023-05-21T23:49:37.108Z,21.97
2023-05-21T23:54:29.625Z,21.88
2023-05-21T23:59:22.808Z,21.87
